Terminal Aerodrome Forecast
Issued by NWS

Home | Current Version | Previous Version | Graphics & Text | Print | Product List | Glossary On
Versions: 1 2 3 4 5 6 7 8 9 10 11 12 13 14 15 16
000
FTUS43 KFGF 151736
TAFBJI
TAF
KBJI 151736Z 1518/1618 30018G26KT P6SM OVC010
     FM152200 31015KT P6SM OVC010
     FM160600 VRB04KT P6SM BKN015
     FM161700 13011KT P6SM BKN015=

USA.gov is the U.S. government's official web portal to all federal, state and local government web resources and services.